Grande Dakar — IBDK — position and weather

sailwx.info

Track history (hours):
 
Tides and Currents Weather Stations Pressure Air Temp Water Temp Dewpoint Dewpoint Depression Visibility Wind Speed Wind Dir Waves Ship Positions

Grande Dakar

Last reported at 2018-Aug-13 19:55 UTC. Time now 2018-Aug-14 06:59 UTC.
Position N 06°08' E 001°18'.

Length 236 m; draft 9.4 m.

Type: Cargo ship. MMSI: 247341900.

Date/timePositionNaut miles runAvg speedWind from/ knotsBaromVisibWave heightAir tempDewpointWater temp
2018-Aug-13 19:55N 06°08' E 001°18'24 8.0
2018-Aug-13 16:57N 05°47' E 001°07'715.6
2018-Aug-13 16:29N 05°41' E 001°03'815.4
2018-Aug-13 16:00N 05°35' E 000°58'815.4
2018-Aug-13 15:27N 05°32' E 000°50'1115.4
2018-Aug-13 14:44N 05°28' E 000°40'415.2
2018-Aug-13 14:27N 05°27' E 000°36'715.3
2018-Aug-13 14:00N 05°24' E 000°29'815.4
2018-Aug-13 13:30N 05°22' E 000°22'815.5
2018-Aug-13 13:01N 05°19' E 000°15'815.4
2018-Aug-13 12:30N 05°16' E 000°07'815.6
2018-Aug-13 12:00N 05°14' W 000°00'815.6
2018-Aug-13 11:30N 05°11' W 000°07'815.8
2018-Aug-13 11:00N 05°08' W 000°15'  
2018-Aug-06 13:40N 27°09' W 014°43'314.2
2018-Aug-06 13:27N 27°12' W 014°42'614.3
2018-Aug-06 13:00N 27°18' W 014°39'1014.6
2018-Aug-06 12:18N 27°27' W 014°34'715.0
2018-Aug-06 11:48N 27°34' W 014°30'415.1
2018-Aug-06 11:31N 27°37' W 014°27'815.3
2018-Aug-06 10:59N 27°45' W 014°23'815.3
2018-Aug-06 10:30N 27°51' W 014°18'715.1
2018-Aug-06 10:01N 27°55' W 014°11'815.3
2018-Aug-06 09:31N 27°60' W 014°05'915.1
2018-Aug-06 08:57N 28°07' W 013°59'715.2
2018-Aug-06 08:30N 28°11' W 013°53'815.1
2018-Aug-06 08:00N 28°17' W 013°48'815.3
2018-Aug-06 07:29N 28°24' W 013°45'815.4
2018-Aug-06 06:59N 28°31' W 013°42'815.8
2018-Aug-06 06:31N 28°39' W 013°39'815.2
2018-Aug-06 06:01N 28°45' W 013°34'815.5
2018-Aug-06 05:30N 28°50' W 013°27'815.4
2018-Aug-06 05:01N 28°56' W 013°21'815.4
2018-Aug-06 04:30N 29°02' W 013°17'3115.5
2018-Aug-06 02:29N 29°28' W 012°56'1015.5
2018-Aug-06 01:48N 29°36' W 012°48'815.4
2018-Aug-06 01:17N 29°42' W 012°43'515.6
2018-Aug-06 01:00N 29°46' W 012°39'815.4
2018-Aug-06 00:31N 29°52' W 012°34'815.4
2018-Aug-06 00:01N 29°58' W 012°29'815.3
2018-Aug-05 23:31N 30°04' W 012°23'915.4
2018-Aug-05 22:57N 30°11' W 012°17'715.2
2018-Aug-05 22:31N 30°16' W 012°12'815.0
2018-Aug-05 22:01N 30°22' W 012°07'815.7
2018-Aug-05 21:31N 30°28' W 012°01'815.9
2018-Aug-05 21:01N 30°34' W 011°55'816.0
2018-Aug-05 20:30N 30°40' W 011°50'815.8
2018-Aug-05 20:00N 30°47' W 011°44'815.6
2018-Aug-05 19:31N 30°53' W 011°38'1515.5
2018-Aug-05 18:33N 31°04' W 011°28'115.4
2018-Aug-05 18:30N 31°05' W 011°27'815.1
2018-Aug-05 17:57N 31°12' W 011°21'915.6
2018-Aug-05 17:23N 31°19' W 011°15'615.7
2018-Aug-05 17:00N 31°24' W 011°11'815.4
2018-Aug-05 16:28N 31°30' W 011°05'1015.6
2018-Aug-05 15:50N 31°38' W 010°58'615.7
2018-Aug-05 15:29N 31°42' W 010°54'815.7
2018-Aug-05 15:00N 31°48' W 010°48'815.6
2018-Aug-05 14:30N 31°54' W 010°43'1615.6
2018-Aug-05 13:30N 32°06' W 010°31'815.5
2018-Aug-05 12:59N 32°13' W 010°25'815.7
2018-Aug-05 12:29N 32°19' W 010°19'815.6
2018-Aug-05 12:01N 32°25' W 010°14'815.7
2018-Aug-05 11:29N 32°31' W 010°08'715.4
2018-Aug-05 11:01N 32°36' W 010°02'815.6
2018-Aug-05 10:31N 32°41' W 009°54'815.4
2018-Aug-05 10:01N 32°45' W 009°47'815.6
2018-Aug-05 09:30N 32°50' W 009°39'2415.6
2018-Aug-05 07:59N 33°04' W 009°17'915.5
2018-Aug-05 07:25N 33°10' W 009°08'815.5
2018-Aug-05 06:55N 33°15' W 009°01'915.2
2018-Aug-05 06:20N 33°20' W 008°53'515.4
2018-Aug-05 06:01N 33°23' W 008°48'815.7
2018-Aug-05 05:31N 33°28' W 008°40'4515.1
2018-Aug-05 02:32N 33°46' W 007°51'115.5
2018-Aug-05 02:27N 33°46' W 007°49'716.0
2018-Aug-05 02:00N 33°46' W 007°41'180 8.6
2018-Aug-04 05:02N 36°21' W 009°32'118.0
2018-Aug-04 04:59N 36°21' W 009°33'918.0
2018-Aug-04 04:30N 36°29' W 009°38'917.6
2018-Aug-04 04:00N 36°36' W 009°44'917.5
2018-Aug-04 03:31N 36°44' W 009°49'1117.8
2018-Aug-04 02:52N 36°55' W 009°51'617.5
2018-Aug-04 02:31N 37°02' W 009°51'917.4
2018-Aug-04 02:01N 37°10' W 009°52'1017.4
2018-Aug-04 01:26N 37°20' W 009°54'717.5
2018-Aug-04 01:01N 37°28' W 009°55'917.7
2018-Aug-04 00:31N 37°36' W 009°57'917.7
2018-Aug-04 00:00N 37°45' W 009°58'917.8
2018-Aug-03 23:31N 37°54' W 009°59'917.8
2018-Aug-03 23:00N 38°03' W 010°00'917.7
2018-Aug-03 22:30N 38°12' W 010°02'917.6
2018-Aug-03 22:00N 38°20' W 010°03'917.6
2018-Aug-03 21:30N 38°29' W 010°04'917.6
2018-Aug-03 21:01N 38°38' W 010°06'917.4
2018-Aug-03 20:31N 38°46' W 010°07'917.5
2018-Aug-03 20:01N 38°55' W 010°07'  
Track history (hours):
 
Tides and Currents Weather Stations Pressure Air Temp Water Temp Dewpoint Dewpoint Depression Visibility Wind Speed Wind Dir Waves Ship Positions

Grande Dakar

Last reported at 2018-Aug-13 19:55 UTC. Time now 2018-Aug-14 06:59 UTC.
Position N 06°08' E 001°18'.

Length 236 m; draft 9.4 m.

Type: Cargo ship. MMSI: 247341900.

Date/timePositionNaut miles runAvg speedWind from/ knotsBaromVisibWave heightAir tempDewpointWater temp
2018-Aug-13 19:55N 06°08' E 001°18'24 8.0
2018-Aug-13 16:57N 05°47' E 001°07'715.6
2018-Aug-13 16:29N 05°41' E 001°03'815.4
2018-Aug-13 16:00N 05°35' E 000°58'815.4
2018-Aug-13 15:27N 05°32' E 000°50'1115.4
2018-Aug-13 14:44N 05°28' E 000°40'415.2
2018-Aug-13 14:27N 05°27' E 000°36'715.3
2018-Aug-13 14:00N 05°24' E 000°29'815.4
2018-Aug-13 13:30N 05°22' E 000°22'815.5
2018-Aug-13 13:01N 05°19' E 000°15'815.4
2018-Aug-13 12:30N 05°16' E 000°07'815.6
2018-Aug-13 12:00N 05°14' W 000°00'815.6
2018-Aug-13 11:30N 05°11' W 000°07'815.8
2018-Aug-13 11:00N 05°08' W 000°15'  
2018-Aug-06 13:40N 27°09' W 014°43'314.2
2018-Aug-06 13:27N 27°12' W 014°42'614.3
2018-Aug-06 13:00N 27°18' W 014°39'1014.6
2018-Aug-06 12:18N 27°27' W 014°34'715.0
2018-Aug-06 11:48N 27°34' W 014°30'415.1
2018-Aug-06 11:31N 27°37' W 014°27'815.3
2018-Aug-06 10:59N 27°45' W 014°23'815.3
2018-Aug-06 10:30N 27°51' W 014°18'715.1
2018-Aug-06 10:01N 27°55' W 014°11'815.3
2018-Aug-06 09:31N 27°60' W 014°05'915.1
2018-Aug-06 08:57N 28°07' W 013°59'715.2
2018-Aug-06 08:30N 28°11' W 013°53'815.1
2018-Aug-06 08:00N 28°17' W 013°48'815.3
2018-Aug-06 07:29N 28°24' W 013°45'815.4
2018-Aug-06 06:59N 28°31' W 013°42'815.8
2018-Aug-06 06:31N 28°39' W 013°39'815.2
2018-Aug-06 06:01N 28°45' W 013°34'815.5
2018-Aug-06 05:30N 28°50' W 013°27'815.4
2018-Aug-06 05:01N 28°56' W 013°21'815.4
2018-Aug-06 04:30N 29°02' W 013°17'3115.5
2018-Aug-06 02:29N 29°28' W 012°56'1015.5
2018-Aug-06 01:48N 29°36' W 012°48'815.4
2018-Aug-06 01:17N 29°42' W 012°43'515.6
2018-Aug-06 01:00N 29°46' W 012°39'815.4
2018-Aug-06 00:31N 29°52' W 012°34'815.4
2018-Aug-06 00:01N 29°58' W 012°29'815.3
2018-Aug-05 23:31N 30°04' W 012°23'915.4
2018-Aug-05 22:57N 30°11' W 012°17'715.2
2018-Aug-05 22:31N 30°16' W 012°12'815.0
2018-Aug-05 22:01N 30°22' W 012°07'815.7
2018-Aug-05 21:31N 30°28' W 012°01'815.9
2018-Aug-05 21:01N 30°34' W 011°55'816.0
2018-Aug-05 20:30N 30°40' W 011°50'815.8
2018-Aug-05 20:00N 30°47' W 011°44'815.6
2018-Aug-05 19:31N 30°53' W 011°38'1515.5
2018-Aug-05 18:33N 31°04' W 011°28'115.4
2018-Aug-05 18:30N 31°05' W 011°27'815.1
2018-Aug-05 17:57N 31°12' W 011°21'915.6
2018-Aug-05 17:23N 31°19' W 011°15'615.7
2018-Aug-05 17:00N 31°24' W 011°11'815.4
2018-Aug-05 16:28N 31°30' W 011°05'1015.6
2018-Aug-05 15:50N 31°38' W 010°58'615.7
2018-Aug-05 15:29N 31°42' W 010°54'815.7
2018-Aug-05 15:00N 31°48' W 010°48'815.6
2018-Aug-05 14:30N 31°54' W 010°43'1615.6
2018-Aug-05 13:30N 32°06' W 010°31'815.5
2018-Aug-05 12:59N 32°13' W 010°25'815.7
2018-Aug-05 12:29N 32°19' W 010°19'815.6
2018-Aug-05 12:01N 32°25' W 010°14'815.7
2018-Aug-05 11:29N 32°31' W 010°08'715.4
2018-Aug-05 11:01N 32°36' W 010°02'815.6
2018-Aug-05 10:31N 32°41' W 009°54'815.4
2018-Aug-05 10:01N 32°45' W 009°47'815.6
2018-Aug-05 09:30N 32°50' W 009°39'2415.6
2018-Aug-05 07:59N 33°04' W 009°17'915.5
2018-Aug-05 07:25N 33°10' W 009°08'815.5
2018-Aug-05 06:55N 33°15' W 009°01'915.2
2018-Aug-05 06:20N 33°20' W 008°53'515.4
2018-Aug-05 06:01N 33°23' W 008°48'815.7
2018-Aug-05 05:31N 33°28' W 008°40'4515.1
2018-Aug-05 02:32N 33°46' W 007°51'115.5
2018-Aug-05 02:27N 33°46' W 007°49'716.0
2018-Aug-05 02:00N 33°46' W 007°41'180 8.6
2018-Aug-04 05:02N 36°21' W 009°32'118.0
2018-Aug-04 04:59N 36°21' W 009°33'918.0
2018-Aug-04 04:30N 36°29' W 009°38'917.6
2018-Aug-04 04:00N 36°36' W 009°44'917.5
2018-Aug-04 03:31N 36°44' W 009°49'1117.8
2018-Aug-04 02:52N 36°55' W 009°51'617.5
2018-Aug-04 02:31N 37°02' W 009°51'917.4
2018-Aug-04 02:01N 37°10' W 009°52'1017.4
2018-Aug-04 01:26N 37°20' W 009°54'717.5
2018-Aug-04 01:01N 37°28' W 009°55'917.7
2018-Aug-04 00:31N 37°36' W 009°57'917.7
2018-Aug-04 00:00N 37°45' W 009°58'917.8
2018-Aug-03 23:31N 37°54' W 009°59'917.8
2018-Aug-03 23:00N 38°03' W 010°00'917.7
2018-Aug-03 22:30N 38°12' W 010°02'917.6
2018-Aug-03 22:00N 38°20' W 010°03'917.6
2018-Aug-03 21:30N 38°29' W 010°04'917.6
2018-Aug-03 21:01N 38°38' W 010°06'917.4
2018-Aug-03 20:31N 38°46' W 010°07'917.5
2018-Aug-03 20:01N 38°55' W 010°07'  

Dump ship's entire track history